createdAt,value
2022-12-23T00:01:08.278Z,69.35
2022-12-23T00:03:37.346Z,64.90
2022-12-23T00:06:11.143Z,61.00
2022-12-23T00:08:40.724Z,71.72
2022-12-23T00:11:16.495Z,62.33
2022-12-23T00:14:05.160Z,62.50
2022-12-23T00:16:36.769Z,63.90
2022-12-23T00:19:06.270Z,63.70
2022-12-23T00:21:36.891Z,62.63
2022-12-23T00:24:05.936Z,61.40
2022-12-23T00:26:34.747Z,66.18
2022-12-23T00:29:03.468Z,66.47
2022-12-23T00:31:32.369Z,67.43
2022-12-23T00:34:01.146Z,70.95
2022-12-23T00:36:31.941Z,69.30
2022-12-23T00:39:21.276Z,66.07
2022-12-23T00:42:09.656Z,64.65
2022-12-23T00:44:38.419Z,63.25
2022-12-23T00:47:07.107Z,64.05
2022-12-23T00:49:51.269Z,60.80
2022-12-23T00:52:20.139Z,60.78
2022-12-23T00:54:48.935Z,65.20
2022-12-23T00:57:17.917Z,67.45
2022-12-23T00:59:46.652Z,70.28
2022-12-23T01:02:35.231Z,61.85
2022-12-23T01:05:23.736Z,66.60
2022-12-23T01:07:52.631Z,60.70
2022-12-23T01:10:21.361Z,61.40
2022-12-23T01:12:50.178Z,60.15
2022-12-23T01:15:19.154Z,59.42
2022-12-23T01:17:47.980Z,55.97
2022-12-23T01:20:16.776Z,59.50
2022-12-23T01:22:45.640Z,64.40
2022-12-23T01:25:14.871Z,61.33
2022-12-23T01:27:43.711Z,63.83
2022-12-23T01:30:12.825Z,64.50
2022-12-23T01:32:41.674Z,61.25
2022-12-23T01:35:10.450Z,58.90
2022-12-23T01:37:39.312Z,57.38
2022-12-23T01:40:09.421Z,57.42
2022-12-23T01:42:45.491Z,59.15
2022-12-23T01:45:18.001Z,54.50
2022-12-23T01:47:47.780Z,54.50
2022-12-23T01:50:26.702Z,54.25
2022-12-23T01:53:21.147Z,52.25
2022-12-23T01:55:57.313Z,53.88
2022-12-23T01:58:42.623Z,48.60
2022-12-23T02:01:31.815Z,52.72
2022-12-23T02:04:04.088Z,50.60
2022-12-23T02:07:00.348Z,54.83
2022-12-23T02:09:32.398Z,51.72
2022-12-23T02:12:22.471Z,54.83
2022-12-23T02:15:31.470Z,56.38
2022-12-23T02:18:02.201Z,58.38
2022-12-23T02:21:11.908Z,48.28
2022-12-23T02:23:46.026Z,50.05
2022-12-23T02:26:54.086Z,48.10
2022-12-23T02:29:47.427Z,49.05
2022-12-23T02:32:55.664Z,50.72
2022-12-23T02:35:48.202Z,51.28
2022-12-23T02:38:41.797Z,52.03
2022-12-23T02:41:27.530Z,53.03
2022-12-23T02:44:03.928Z,52.92
2022-12-23T02:46:42.941Z,45.15
2022-12-23T02:49:17.604Z,50.13
2022-12-23T02:51:51.454Z,43.72
2022-12-23T02:54:27.696Z,44.63
2022-12-23T02:56:58.119Z,42.95
2022-12-23T02:59:32.006Z,42.65
2022-12-23T03:02:02.420Z,53.25
2022-12-23T03:04:31.480Z,38.55
2022-12-23T03:07:07.236Z,38.40
2022-12-23T03:10:12.329Z,38.13
2022-12-23T03:12:54.481Z,41.00
2022-12-23T03:15:28.783Z,42.83
2022-12-23T03:18:13.057Z,39.00
2022-12-23T03:20:46.737Z,39.50
2022-12-23T03:23:31.801Z,39.30
2022-12-23T03:26:24.776Z,40.63
2022-12-23T03:28:56.754Z,41.33
2022-12-23T03:31:29.112Z,41.05
2022-12-23T03:34:07.768Z,41.67
2022-12-23T03:36:43.445Z,39.60
2022-12-23T03:39:17.703Z,38.35
2022-12-23T03:41:52.469Z,39.83
2022-12-23T03:44:27.611Z,38.70
2022-12-23T03:47:06.375Z,37.47
2022-12-23T03:49:43.146Z,35.67
2022-12-23T03:52:21.336Z,32.53
2022-12-23T03:54:56.079Z,32.25
2022-12-23T03:57:30.771Z,32.90
2022-12-23T03:59:59.628Z,56.08
2022-12-23T04:02:55.579Z,32.63
2022-12-23T04:05:31.362Z,32.97
2022-12-23T04:08:05.217Z,32.63
2022-12-23T04:10:34.269Z,31.35
2022-12-23T04:13:03.382Z,30.77
2022-12-23T04:15:32.490Z,29.98
2022-12-23T04:18:01.337Z,28.45
2022-12-23T04:20:30.184Z,28.83
2022-12-23T04:22:58.989Z,28.20
2022-12-23T04:25:27.810Z,27.27
2022-12-23T04:27:56.753Z,26.33
2022-12-23T04:30:31.395Z,26.20
2022-12-23T04:33:03.059Z,26.20
2022-12-23T04:35:32.549Z,27.30
2022-12-23T04:38:01.465Z,25.33
2022-12-23T04:40:30.319Z,27.88
2022-12-23T04:42:59.177Z,26.23
2022-12-23T04:45:28.060Z,27.05
2022-12-23T04:47:56.925Z,26.20
2022-12-23T04:50:25.838Z,25.80
2022-12-23T04:52:54.669Z,28.40
2022-12-23T04:55:23.562Z,23.48
2022-12-23T04:57:52.296Z,25.92
2022-12-23T05:00:22.287Z,26.63
2022-12-23T05:02:51.301Z,29.40
2022-12-23T05:05:20.424Z,28.75
2022-12-23T05:07:52.505Z,23.45
2022-12-23T05:10:21.472Z,28.27
2022-12-23T05:12:50.368Z,29.63
2022-12-23T05:15:19.139Z,28.88
2022-12-23T05:17:47.960Z,38.92
2022-12-23T05:20:16.874Z,28.63
2022-12-23T05:22:45.626Z,28.70
2022-12-23T05:25:14.472Z,30.30
2022-12-23T05:27:43.332Z,27.75
2022-12-23T05:30:12.656Z,28.60
2022-12-23T05:32:41.538Z,27.65
2022-12-23T05:35:10.942Z,25.77
2022-12-23T05:37:39.901Z,27.92
2022-12-23T05:40:09.346Z,28.40
2022-12-23T05:42:38.237Z,29.33
2022-12-23T05:45:08.515Z,28.80
2022-12-23T05:47:37.332Z,33.25
2022-12-23T05:50:06.988Z,45.75
2022-12-23T05:52:35.808Z,29.85
2022-12-23T05:55:04.981Z,28.77
2022-12-23T05:57:33.939Z,30.65
2022-12-23T06:00:02.697Z,29.83
2022-12-23T06:02:31.746Z,26.95
2022-12-23T06:05:00.727Z,30.95
2022-12-23T06:07:29.517Z,28.25
2022-12-23T06:09:58.315Z,25.92
2022-12-23T06:12:27.275Z,28.23
2022-12-23T06:14:56.100Z,28.90
2022-12-23T06:17:25.029Z,29.67
2022-12-23T06:19:54.113Z,26.13
2022-12-23T06:22:24.475Z,31.33
2022-12-23T06:24:53.276Z,27.45
2022-12-23T06:27:22.321Z,28.35
2022-12-23T06:29:51.059Z,38.38
2022-12-23T06:32:19.939Z,28.90
2022-12-23T06:34:50.781Z,25.95
2022-12-23T06:37:19.517Z,25.88
2022-12-23T06:39:48.259Z,31.60
2022-12-23T06:42:17.184Z,27.90
2022-12-23T06:44:46.031Z,27.02
2022-12-23T06:47:14.741Z,27.20
2022-12-23T06:49:43.571Z,29.13
2022-12-23T06:52:12.457Z,28.70
2022-12-23T06:54:43.568Z,25.73
2022-12-23T06:57:12.560Z,27.95
2022-12-23T06:59:41.440Z,24.98
2022-12-23T07:02:13.160Z,29.83
2022-12-23T07:04:42.168Z,29.77
2022-12-23T07:07:10.892Z,25.80
2022-12-23T07:09:39.631Z,31.85
2022-12-23T07:12:08.514Z,27.48
2022-12-23T07:14:37.249Z,29.38
2022-12-23T07:17:06.245Z,27.58
2022-12-23T07:19:35.284Z,26.77
2022-12-23T07:22:04.305Z,25.48
2022-12-23T07:24:33.141Z,29.33
2022-12-23T07:27:01.925Z,26.70
2022-12-23T07:29:30.711Z,25.23
2022-12-23T07:31:59.527Z,26.30
2022-12-23T07:34:28.650Z,31.77
2022-12-23T07:36:57.785Z,27.42
2022-12-23T07:39:26.637Z,28.88
2022-12-23T07:42:16.565Z,31.40
2022-12-23T07:44:44.215Z,30.23
2022-12-23T07:47:13.150Z,28.77
2022-12-23T07:49:41.990Z,31.73
2022-12-23T07:52:10.827Z,36.65
2022-12-23T07:54:39.684Z,32.17
2022-12-23T07:57:08.376Z,31.98
2022-12-23T07:59:37.093Z,30.63
2022-12-23T08:02:06.049Z,30.85
2022-12-23T08:04:36.616Z,31.23
2022-12-23T08:07:07.160Z,33.90
2022-12-23T08:09:35.867Z,31.98
2022-12-23T08:12:05.322Z,30.50
2022-12-23T08:14:34.189Z,35.97
2022-12-23T08:17:03.133Z,31.25
2022-12-23T08:19:32.195Z,32.42
2022-12-23T08:22:01.195Z,28.50
2022-12-23T08:24:29.993Z,27.30
2022-12-23T08:26:59.371Z,27.67
2022-12-23T08:29:32.536Z,63.65
2022-12-23T08:32:05.016Z,28.77
2022-12-23T08:34:33.989Z,26.90
2022-12-23T08:37:03.158Z,28.95
2022-12-23T08:39:32.029Z,29.83
2022-12-23T08:42:00.901Z,28.15
2022-12-23T08:44:29.794Z,32.83
2022-12-23T08:46:58.791Z,29.40
2022-12-23T08:49:27.690Z,32.60
2022-12-23T08:51:56.602Z,30.88
2022-12-23T08:54:26.195Z,26.08
2022-12-23T08:56:55.077Z,29.40
2022-12-23T08:59:23.937Z,30.80
2022-12-23T09:01:52.894Z,30.08
2022-12-23T09:04:21.940Z,29.83
2022-12-23T09:06:50.792Z,30.75
2022-12-23T09:09:19.595Z,28.83
2022-12-23T09:11:48.497Z,26.75
2022-12-23T09:14:17.363Z,31.77
2022-12-23T09:16:46.185Z,28.40
2022-12-23T09:19:15.192Z,28.20
2022-12-23T09:21:44.078Z,33.00
2022-12-23T09:24:13.084Z,35.65
2022-12-23T09:26:42.085Z,28.38
2022-12-23T09:29:10.885Z,29.35
2022-12-23T09:31:39.935Z,29.27
2022-12-23T09:34:08.947Z,31.80
2022-12-23T09:36:37.840Z,27.63
2022-12-23T09:39:06.733Z,29.33
2022-12-23T09:42:02.989Z,29.63
2022-12-23T09:44:40.550Z,40.97
2022-12-23T09:47:20.961Z,57.78
2022-12-23T09:49:55.573Z,31.48
2022-12-23T09:52:39.023Z,32.58
2022-12-23T09:55:11.710Z,32.42
2022-12-23T09:57:50.016Z,32.95
2022-12-23T10:00:22.722Z,37.33
2022-12-23T10:03:19.410Z,36.20
2022-12-23T10:06:06.539Z,39.92
2022-12-23T10:08:39.493Z,40.00
2022-12-23T10:13:44.853Z,30.33
2022-12-23T10:16:20.569Z,32.50
2022-12-23T10:19:09.689Z,35.90
2022-12-23T10:21:51.610Z,41.35
2022-12-23T10:24:31.623Z,38.17
2022-12-23T10:27:06.122Z,34.15
2022-12-23T10:29:35.683Z,37.45
2022-12-23T10:32:40.230Z,37.67
2022-12-23T10:35:49.322Z,37.45
2022-12-23T10:38:39.289Z,37.03
2022-12-23T10:41:10.050Z,34.67
2022-12-23T10:43:40.922Z,38.13
2022-12-23T10:46:37.178Z,42.13
2022-12-23T10:49:15.296Z,42.05
2022-12-23T10:51:49.844Z,41.75
2022-12-23T10:54:33.492Z,39.90
2022-12-23T10:57:04.080Z,43.30
2022-12-23T10:59:35.670Z,39.65
2022-12-23T11:02:14.999Z,38.17
2022-12-23T11:04:47.847Z,42.83
2022-12-23T11:10:19.232Z,42.00
2022-12-23T11:12:51.242Z,44.35
2022-12-23T11:15:39.572Z,42.95
2022-12-23T11:18:16.757Z,47.10
2022-12-23T11:21:02.227Z,42.00
2022-12-23T11:23:34.471Z,45.50
2022-12-23T11:26:06.595Z,43.13
2022-12-23T11:28:38.635Z,43.27
2022-12-23T11:31:12.613Z,43.75
2022-12-23T11:33:47.804Z,40.38
2022-12-23T11:36:25.201Z,45.22
2022-12-23T11:39:07.230Z,49.05
2022-12-23T11:41:39.901Z,45.80
2022-12-23T11:44:33.150Z,44.88
2022-12-23T11:47:26.401Z,45.67
2022-12-23T11:50:01.087Z,49.08
2022-12-23T11:52:32.538Z,46.95
2022-12-23T11:55:03.878Z,45.80
2022-12-23T11:57:44.524Z,41.78
2022-12-23T12:00:44.315Z,47.88
2022-12-23T12:03:24.066Z,43.92
2022-12-23T12:05:59.023Z,44.05
2022-12-23T12:08:36.862Z,44.05
2022-12-23T12:11:18.104Z,41.80
2022-12-23T12:13:51.669Z,48.67
2022-12-23T12:16:41.521Z,51.85
2022-12-23T12:19:23.967Z,49.00
2022-12-23T12:21:57.781Z,47.60
2022-12-23T12:24:34.328Z,47.38
2022-12-23T12:27:07.002Z,51.35
2022-12-23T12:29:46.616Z,48.50
2022-12-23T12:32:37.943Z,48.88
2022-12-23T12:35:16.459Z,50.15
2022-12-23T12:37:58.926Z,51.80
2022-12-23T12:40:33.709Z,50.63
2022-12-23T12:43:35.675Z,53.42
2022-12-23T12:46:28.582Z,50.15
2022-12-23T12:49:23.989Z,57.08
2022-12-23T12:52:17.375Z,48.65
2022-12-23T12:54:52.561Z,51.47
2022-12-23T12:57:24.960Z,45.92
2022-12-23T13:00:05.681Z,50.35
2022-12-23T13:03:06.052Z,54.83
2022-12-23T13:05:54.242Z,60.22
2022-12-23T13:08:43.359Z,54.78
2022-12-23T13:11:39.012Z,50.33
2022-12-23T13:14:47.018Z,53.03
2022-12-23T13:17:22.986Z,57.25
2022-12-23T13:20:13.721Z,55.22
2022-12-23T13:22:43.875Z,58.47
2022-12-23T13:25:16.339Z,55.67
2022-12-23T13:27:59.385Z,56.30
2022-12-23T13:30:36.245Z,52.28
2022-12-23T13:33:24.232Z,60.00
2022-12-23T13:36:05.771Z,65.40
2022-12-23T13:38:55.455Z,67.18
2022-12-23T13:41:36.928Z,65.93
2022-12-23T13:44:09.537Z,58.05
2022-12-23T13:47:07.834Z,61.88
2022-12-23T13:49:46.036Z,65.72
2022-12-23T13:52:26.122Z,57.90
2022-12-23T13:54:56.830Z,58.83
2022-12-23T13:57:34.489Z,54.20
2022-12-23T14:00:27.304Z,57.50
2022-12-23T14:03:04.617Z,60.28
2022-12-23T14:05:39.936Z,61.25
2022-12-23T14:08:26.329Z,57.72
2022-12-23T14:11:12.851Z,54.65
2022-12-23T14:13:59.600Z,55.78
2022-12-23T14:17:04.021Z,51.42
2022-12-23T14:19:46.960Z,58.97
2022-12-23T14:22:32.531Z,54.63
2022-12-23T14:25:30.753Z,55.22
2022-12-23T14:28:30.294Z,54.83
2022-12-23T14:30:59.635Z,58.15
2022-12-23T14:33:31.417Z,56.60
2022-12-23T14:36:31.252Z,60.47
2022-12-23T14:39:23.679Z,58.97
2022-12-23T14:41:58.726Z,62.45
2022-12-23T14:44:38.920Z,67.35
2022-12-23T14:47:31.517Z,59.83
2022-12-23T14:50:39.529Z,58.93
2022-12-23T14:53:28.943Z,62.55
2022-12-23T14:56:17.972Z,57.72
2022-12-23T14:59:02.803Z,64.65
2022-12-23T15:01:39.797Z,60.25
2022-12-23T15:04:15.671Z,61.22
2022-12-23T15:06:48.651Z,64.00
2022-12-23T15:11:50.534Z,59.17
2022-12-23T15:14:30.929Z,59.25
2022-12-23T15:17:00.113Z,59.50
2022-12-23T15:19:30.047Z,71.00
2022-12-23T15:22:20.603Z,67.00
2022-12-23T15:24:51.330Z,64.20
2022-12-23T15:27:30.289Z,66.22
2022-12-23T15:29:59.736Z,69.55
2022-12-23T15:32:30.648Z,67.45
2022-12-23T15:35:06.125Z,67.35
2022-12-23T15:37:35.954Z,64.78
2022-12-23T15:40:12.630Z,70.85
2022-12-23T15:42:50.125Z,65.72
2022-12-23T15:45:30.669Z,65.78
2022-12-23T15:47:59.827Z,65.45
2022-12-23T15:50:30.042Z,76.78
2022-12-23T15:53:06.402Z,61.28
2022-12-23T15:55:38.203Z,56.78
2022-12-23T15:58:07.196Z,61.97
2022-12-23T16:00:39.959Z,59.47
2022-12-23T16:03:25.389Z,59.03
2022-12-23T16:05:54.556Z,58.40
2022-12-23T16:08:30.247Z,54.30
2022-12-23T16:11:07.786Z,60.58
2022-12-23T16:13:41.512Z,61.80
2022-12-23T16:16:33.803Z,54.30
2022-12-23T16:19:02.966Z,59.63
2022-12-23T16:21:36.181Z,53.38
2022-12-23T16:24:09.761Z,51.92
2022-12-23T16:26:45.997Z,53.88
2022-12-23T16:29:16.148Z,52.00
2022-12-23T16:31:52.033Z,50.17
2022-12-23T16:34:24.757Z,43.67
2022-12-23T16:36:53.537Z,41.72
2022-12-23T16:39:24.529Z,40.58
2022-12-23T16:41:53.468Z,38.67
2022-12-23T16:44:22.256Z,41.13
2022-12-23T16:46:52.644Z,35.60
2022-12-23T16:49:27.981Z,38.63
2022-12-23T16:52:00.459Z,36.20
2022-12-23T16:54:29.222Z,35.47
2022-12-23T16:56:58.071Z,36.85
2022-12-23T17:03:47.999Z,34.90
2022-12-23T17:06:19.137Z,35.80
2022-12-23T17:08:48.373Z,35.55
2022-12-23T17:11:30.516Z,35.20
2022-12-23T17:14:04.092Z,34.20
2022-12-23T17:16:34.017Z,36.65
2022-12-23T17:19:02.921Z,38.25
2022-12-23T17:21:34.952Z,42.53
2022-12-23T17:24:11.110Z,43.47
2022-12-23T17:26:40.006Z,41.60
2022-12-23T17:29:08.875Z,41.00
2022-12-23T17:31:37.697Z,39.80
2022-12-23T17:34:12.567Z,44.40
2022-12-23T17:36:46.062Z,41.17
2022-12-23T17:39:18.312Z,39.65
2022-12-23T17:41:47.494Z,45.90
2022-12-23T17:44:18.148Z,40.50
2022-12-23T17:46:47.864Z,46.53
2022-12-23T17:49:16.858Z,41.42
2022-12-23T17:51:45.845Z,38.67
2022-12-23T17:54:24.885Z,41.83
2022-12-23T17:56:54.166Z,44.08
2022-12-23T17:59:23.316Z,46.95
2022-12-23T18:01:52.302Z,37.67
2022-12-23T18:04:21.656Z,40.83
2022-12-23T18:06:50.572Z,37.75
2022-12-23T18:09:20.368Z,41.17
2022-12-23T18:11:49.390Z,40.28
2022-12-23T18:14:28.954Z,38.42
2022-12-23T18:16:57.976Z,36.95
2022-12-23T18:19:26.858Z,38.95
2022-12-23T18:21:55.585Z,39.60
2022-12-23T18:24:24.385Z,36.90
2022-12-23T18:26:53.096Z,35.47
2022-12-23T18:29:21.915Z,44.20
2022-12-23T18:31:52.296Z,38.60
2022-12-23T18:34:22.261Z,35.72
2022-12-23T18:36:52.567Z,36.47
2022-12-23T18:39:21.698Z,36.75
2022-12-23T18:41:50.802Z,37.95
2022-12-23T18:44:22.024Z,37.15
2022-12-23T18:46:51.596Z,34.45
2022-12-23T18:49:20.362Z,35.75
2022-12-23T18:51:49.168Z,33.20
2022-12-23T18:54:18.843Z,34.90
2022-12-23T18:56:48.744Z,32.60
2022-12-23T18:59:24.304Z,33.33
2022-12-23T19:01:58.101Z,33.03
2022-12-23T19:04:28.294Z,32.15
2022-12-23T19:06:58.031Z,30.17
2022-12-23T19:09:27.459Z,30.23
2022-12-23T19:11:56.291Z,30.55
2022-12-23T19:14:25.204Z,30.85
2022-12-23T19:16:53.934Z,31.67
2022-12-23T19:19:23.430Z,30.75
2022-12-23T19:21:52.370Z,29.10
2022-12-23T19:24:21.531Z,28.73
2022-12-23T19:26:50.362Z,29.08
2022-12-23T19:29:19.230Z,30.48
2022-12-23T19:31:47.928Z,29.58
2022-12-23T19:34:16.735Z,25.40
2022-12-23T19:36:45.820Z,26.27
2022-12-23T19:39:17.419Z,26.60
2022-12-23T19:41:46.664Z,25.67
2022-12-23T19:44:15.912Z,24.58
2022-12-23T19:46:44.816Z,24.80
2022-12-23T19:49:19.618Z,22.38
2022-12-23T19:51:49.592Z,23.88
2022-12-23T19:54:19.397Z,23.13
2022-12-23T19:56:50.917Z,24.83
2022-12-23T19:59:20.734Z,21.98
2022-12-23T20:01:49.656Z,21.42
2022-12-23T20:04:18.638Z,22.10
2022-12-23T20:06:47.583Z,26.92
2022-12-23T20:09:16.512Z,22.15
2022-12-23T20:11:48.348Z,22.33
2022-12-23T20:14:19.430Z,23.17
2022-12-23T20:16:49.487Z,20.52
2022-12-23T20:19:19.251Z,23.45
2022-12-23T20:21:48.358Z,23.55
2022-12-23T20:24:17.714Z,20.60
2022-12-23T20:26:47.063Z,21.35
2022-12-23T20:29:16.008Z,21.92
2022-12-23T20:31:45.361Z,22.63
2022-12-23T20:34:17.599Z,21.73
2022-12-23T20:36:46.668Z,21.70
2022-12-23T20:39:15.568Z,20.45
2022-12-23T20:41:44.400Z,22.35
2022-12-23T20:47:02.208Z,23.27
2022-12-23T20:49:31.187Z,21.98
2022-12-23T20:52:00.118Z,21.48
2022-12-23T20:54:33.197Z,21.27
2022-12-23T20:57:03.935Z,23.08
2022-12-23T20:59:32.760Z,20.73
2022-12-23T21:02:02.192Z,21.70
2022-12-23T21:04:31.195Z,21.52
2022-12-23T21:06:59.944Z,22.77
2022-12-23T21:09:28.854Z,23.38
2022-12-23T21:11:57.647Z,23.35
2022-12-23T21:14:26.774Z,23.13
2022-12-23T21:16:56.567Z,24.38
2022-12-23T21:19:27.086Z,22.33
2022-12-23T21:21:55.889Z,24.48
2022-12-23T21:24:25.328Z,22.75
2022-12-23T21:26:56.933Z,23.40
2022-12-23T21:29:26.665Z,24.98
2022-12-23T21:31:56.022Z,26.23
2022-12-23T21:34:25.109Z,22.60
2022-12-23T21:36:53.987Z,25.48
2022-12-23T21:39:22.811Z,23.52
2022-12-23T21:41:52.499Z,24.85
2022-12-23T21:44:21.383Z,22.13
2022-12-23T21:46:52.453Z,23.98
2022-12-23T21:49:22.524Z,25.40
2022-12-23T21:51:51.409Z,25.20
2022-12-23T21:54:20.348Z,22.75
2022-12-23T21:56:49.152Z,22.80
2022-12-23T21:59:20.805Z,23.75
2022-12-23T22:01:51.224Z,22.40
2022-12-23T22:04:20.288Z,22.35
2022-12-23T22:06:49.252Z,23.08
2022-12-23T22:09:20.817Z,22.20
2022-12-23T22:11:50.539Z,22.55
2022-12-23T22:14:20.807Z,23.83
2022-12-23T22:16:49.694Z,22.05
2022-12-23T22:19:18.857Z,25.38
2022-12-23T22:21:47.736Z,25.35
2022-12-23T22:24:16.688Z,23.00
2022-12-23T22:26:45.509Z,23.65
2022-12-23T22:29:14.268Z,23.30
2022-12-23T22:31:48.003Z,24.85
2022-12-23T22:34:20.613Z,24.40
2022-12-23T22:36:50.650Z,24.77
2022-12-23T22:39:22.143Z,27.60
2022-12-23T22:41:52.214Z,27.25
2022-12-23T22:44:22.045Z,27.83
2022-12-23T22:46:51.039Z,25.88
2022-12-23T22:49:20.106Z,27.95
2022-12-23T22:51:49.040Z,26.85
2022-12-23T22:54:18.123Z,26.65
2022-12-23T22:56:47.040Z,29.38
2022-12-23T22:59:25.447Z,28.85
2022-12-23T23:01:55.324Z,32.03
2022-12-23T23:04:26.064Z,31.95
2022-12-23T23:06:54.843Z,30.75
2022-12-23T23:09:24.269Z,29.42
2022-12-23T23:11:53.397Z,27.73
2022-12-23T23:14:22.341Z,25.85
2022-12-23T23:16:51.262Z,29.30
2022-12-23T23:19:21.616Z,26.15
2022-12-23T23:21:50.539Z,25.92
2022-12-23T23:24:19.372Z,24.80
2022-12-23T23:26:48.221Z,25.40
2022-12-23T23:29:17.008Z,25.95
2022-12-23T23:31:45.849Z,25.98
2022-12-23T23:34:15.274Z,28.13
2022-12-23T23:36:44.191Z,28.25
2022-12-23T23:39:14.354Z,26.60
2022-12-23T23:41:43.775Z,27.08
2022-12-23T23:44:13.242Z,31.95
2022-12-23T23:46:42.244Z,31.45
2022-12-23T23:49:11.334Z,28.33
2022-12-23T23:51:40.927Z,31.15
2022-12-23T23:54:10.637Z,30.00
2022-12-23T23:56:39.705Z,34.85
2022-12-23T23:59:10.473Z,31.67
